createdAt,value
2022-08-04T00:02:28.608Z,65.50
2022-08-04T00:05:30.058Z,65.80
2022-08-04T00:08:27.167Z,65.70
2022-08-04T00:11:21.863Z,66.00
2022-08-04T00:14:13.961Z,66.40
2022-08-04T00:17:01.124Z,66.20
2022-08-04T00:19:51.354Z,66.40
2022-08-04T00:22:44.504Z,66.70
2022-08-04T00:25:31.542Z,66.70
2022-08-04T00:28:21.624Z,66.80
2022-08-04T00:31:12.434Z,67.30
2022-08-04T00:34:03.628Z,67.50
2022-08-04T00:36:51.396Z,67.70
2022-08-04T00:39:39.354Z,68.00
2022-08-04T00:42:58.149Z,68.20
2022-08-04T00:46:17.817Z,68.40
2022-08-04T00:49:22.709Z,68.40
2022-08-04T00:52:32.320Z,68.80
2022-08-04T00:55:38.503Z,69.10
2022-08-04T00:58:40.291Z,69.40
2022-08-04T01:01:52.900Z,69.70
2022-08-04T01:04:51.015Z,69.60
2022-08-04T01:07:56.545Z,69.80
2022-08-04T01:10:56.394Z,69.80
2022-08-04T01:13:57.603Z,69.90
2022-08-04T01:16:53.618Z,70.10
2022-08-04T01:20:01.416Z,70.40
2022-08-04T01:23:15.669Z,70.50
2022-08-04T01:26:43.625Z,70.60
2022-08-04T01:29:34.356Z,70.80
2022-08-04T01:32:37.892Z,71.20
2022-08-04T01:35:47.407Z,71.40
2022-08-04T01:38:37.760Z,71.60
2022-08-04T01:41:32.633Z,72.60
2022-08-04T01:44:20.507Z,71.90
2022-08-04T01:47:10.224Z,72.30
2022-08-04T01:50:05.523Z,72.50
2022-08-04T01:52:56.144Z,72.70
2022-08-04T01:55:52.009Z,72.70
2022-08-04T01:58:42.845Z,72.70
2022-08-04T02:01:30.665Z,72.80
2022-08-04T02:04:23.542Z,73.20
2022-08-04T02:07:27.650Z,73.40
2022-08-04T02:10:24.887Z,73.50
2022-08-04T02:13:18.659Z,73.80
2022-08-04T02:16:11.309Z,74.10
2022-08-04T02:19:06.633Z,74.40
2022-08-04T02:22:09.630Z,74.60
2022-08-04T02:25:03.195Z,74.60
2022-08-04T02:27:59.916Z,74.60
2022-08-04T02:30:58.624Z,74.70
2022-08-04T02:33:47.656Z,74.80
2022-08-04T02:36:38.255Z,74.90
2022-08-04T02:39:32.589Z,75.10
2022-08-04T02:42:37.262Z,75.30
2022-08-04T02:45:26.551Z,75.50
2022-08-04T02:48:29.858Z,75.70
2022-08-04T02:51:21.701Z,76.10
2022-08-04T02:54:09.371Z,76.20
2022-08-04T02:57:01.177Z,76.40
2022-08-04T03:00:04.883Z,76.50
2022-08-04T03:03:02.704Z,76.70
2022-08-04T03:06:12.004Z,76.80
2022-08-04T03:09:19.947Z,76.90
2022-08-04T03:12:29.954Z,77.10
2022-08-04T03:15:46.172Z,77.00
2022-08-04T03:18:51.740Z,77.20
2022-08-04T03:22:12.034Z,77.40
2022-08-04T03:25:23.857Z,77.10
2022-08-04T03:28:46.718Z,77.70
2022-08-04T03:31:36.195Z,77.80
2022-08-04T03:34:38.564Z,78.10
2022-08-04T03:37:51.610Z,78.10
2022-08-04T03:41:05.449Z,78.10
2022-08-04T03:44:23.010Z,78.30
2022-08-04T03:47:31.173Z,78.40
2022-08-04T03:50:46.472Z,78.50
2022-08-04T03:53:44.881Z,78.50
2022-08-04T03:56:45.694Z,78.70
2022-08-04T03:59:51.333Z,78.80
2022-08-04T04:03:05.373Z,78.80
2022-08-04T04:06:17.153Z,79.00
2022-08-04T04:09:22.989Z,79.10
2022-08-04T04:12:35.115Z,79.20
2022-08-04T04:15:41.286Z,79.40
2022-08-04T04:18:53.348Z,79.40
2022-08-04T04:21:46.261Z,79.60
2022-08-04T04:24:46.711Z,79.90
2022-08-04T04:27:44.408Z,79.90
2022-08-04T04:30:40.934Z,79.90
2022-08-04T04:33:40.233Z,80.10
2022-08-04T04:36:35.604Z,80.30
2022-08-04T04:39:33.481Z,80.50
2022-08-04T04:42:40.374Z,80.20
2022-08-04T04:45:35.264Z,80.50
2022-08-04T04:48:35.497Z,80.50
2022-08-04T04:51:35.046Z,80.60
2022-08-04T04:54:32.154Z,80.50
2022-08-04T04:57:23.220Z,80.70
2022-08-04T05:00:46.128Z,80.70
2022-08-04T05:03:49.416Z,81.10
2022-08-04T05:06:55.718Z,81.10
2022-08-04T05:09:58.031Z,81.00
2022-08-04T05:14:36.806Z,81.20
2022-08-04T05:16:12.750Z,81.20
2022-08-04T05:19:11.192Z,81.30
2022-08-04T05:22:03.650Z,81.20
2022-08-04T05:24:54.692Z,81.40
2022-08-04T05:27:47.010Z,80.30
2022-08-04T05:30:47.521Z,80.70
2022-08-04T05:33:42.782Z,79.80
2022-08-04T05:36:41.364Z,79.90
2022-08-04T05:39:34.444Z,80.00
2022-08-04T05:42:23.336Z,80.30
2022-08-04T05:45:11.537Z,80.20
2022-08-04T05:47:58.790Z,80.10
2022-08-04T05:50:49.029Z,80.10
2022-08-04T05:53:36.535Z,80.10
2022-08-04T05:56:24.968Z,79.80
2022-08-04T05:59:14.002Z,79.80
2022-08-04T06:02:03.623Z,79.90
2022-08-04T06:04:52.214Z,79.10
2022-08-04T06:08:12.184Z,78.20
2022-08-04T06:10:49.483Z,78.10
2022-08-04T06:13:49.078Z,78.10
2022-08-04T06:16:40.724Z,77.40
2022-08-04T06:20:03.830Z,77.10
2022-08-04T06:22:43.894Z,77.10
2022-08-04T06:25:34.419Z,75.70
2022-08-04T06:28:22.779Z,76.30
2022-08-04T06:32:28.233Z,75.20
2022-08-04T06:34:19.261Z,74.80
2022-08-04T06:37:07.827Z,74.20
2022-08-04T06:39:57.540Z,73.50
2022-08-04T06:42:45.696Z,72.20
2022-08-04T06:45:35.835Z,72.20
2022-08-04T06:48:23.753Z,70.70
2022-08-04T06:51:25.115Z,70.60
2022-08-04T06:54:20.674Z,69.70
2022-08-04T06:57:10.731Z,68.70
2022-08-04T07:00:01.002Z,67.70
2022-08-04T07:02:52.116Z,66.90
2022-08-04T07:05:39.933Z,66.50
2022-08-04T07:08:28.200Z,66.30
2022-08-04T07:11:16.144Z,65.60
2022-08-04T07:14:05.775Z,65.40
2022-08-04T07:16:54.118Z,65.20
2022-08-04T07:19:41.337Z,64.80
2022-08-04T07:22:29.723Z,64.00
2022-08-04T07:25:19.460Z,63.10
2022-08-04T07:28:09.466Z,61.50
2022-08-04T07:30:59.552Z,61.00
2022-08-04T07:33:48.266Z,60.00
2022-08-04T07:36:57.604Z,59.80
2022-08-04T07:39:48.254Z,59.10
2022-08-04T07:42:36.841Z,59.00
2022-08-04T07:45:25.810Z,58.60
2022-08-04T07:48:15.738Z,58.50
2022-08-04T07:51:04.595Z,58.00
2022-08-04T07:53:56.366Z,57.50
2022-08-04T07:56:45.028Z,56.10
2022-08-04T07:59:31.984Z,55.10
2022-08-04T08:02:21.651Z,54.60
2022-08-04T08:05:12.391Z,54.00
2022-08-04T08:08:00.727Z,53.10
2022-08-04T08:10:49.423Z,53.10
2022-08-04T08:13:38.032Z,52.60
2022-08-04T08:16:25.366Z,52.30
2022-08-04T08:19:12.894Z,51.80
2022-08-04T08:22:02.393Z,51.10
2022-08-04T08:24:49.667Z,50.30
2022-08-04T08:27:38.630Z,49.20
2022-08-04T08:30:43.377Z,49.60
2022-08-04T08:33:30.501Z,49.40
2022-08-04T08:36:25.580Z,48.20
2022-08-04T08:39:21.579Z,47.00
2022-08-04T08:42:38.352Z,46.20
2022-08-04T08:45:30.942Z,45.60
2022-08-04T08:48:34.613Z,45.20
2022-08-04T08:51:38.515Z,44.70
2022-08-04T08:54:48.697Z,44.40
2022-08-04T08:58:00.168Z,43.90
2022-08-04T09:00:56.697Z,43.80
2022-08-04T09:04:03.356Z,42.90
2022-08-04T09:07:03.479Z,42.40
2022-08-04T09:10:04.053Z,41.00
2022-08-04T09:12:57.337Z,41.00
2022-08-04T09:15:54.460Z,41.40
2022-08-04T09:18:48.850Z,40.50
2022-08-04T09:21:40.876Z,40.60
2022-08-04T09:24:45.921Z,39.60
2022-08-04T09:27:41.886Z,39.10
2022-08-04T09:30:39.895Z,38.00
2022-08-04T09:33:44.774Z,39.00
2022-08-04T09:36:40.663Z,38.10
2022-08-04T09:39:36.272Z,37.90
2022-08-04T09:42:31.578Z,38.40
2022-08-04T09:45:43.202Z,38.40
2022-08-04T09:48:35.671Z,37.30
2022-08-04T09:51:59.028Z,38.30
2022-08-04T09:54:50.417Z,35.90
2022-08-04T09:57:52.979Z,35.80
2022-08-04T10:00:50.793Z,36.70
2022-08-04T10:03:45.224Z,36.10
2022-08-04T10:06:47.710Z,36.70
2022-08-04T10:09:48.936Z,36.10
2022-08-04T10:12:45.558Z,35.70
2022-08-04T10:15:41.514Z,36.40
2022-08-04T10:18:45.327Z,36.40
2022-08-04T10:21:59.018Z,35.80
2022-08-04T10:25:02.148Z,35.80
2022-08-04T10:27:53.720Z,35.20
2022-08-04T10:30:44.476Z,36.50
2022-08-04T10:33:40.038Z,35.30
2022-08-04T10:36:33.410Z,35.60
2022-08-04T10:39:42.164Z,36.40
2022-08-04T10:42:33.321Z,35.00
2022-08-04T10:45:24.899Z,35.50
2022-08-04T10:48:34.256Z,36.40
2022-08-04T10:51:31.343Z,34.60
2022-08-04T10:54:49.726Z,37.20
2022-08-04T10:57:41.540Z,36.90
2022-08-04T11:00:31.307Z,36.50
2022-08-04T11:03:24.498Z,36.50
2022-08-04T11:06:11.915Z,36.80
2022-08-04T11:09:02.293Z,36.00
2022-08-04T11:11:56.965Z,33.90
2022-08-04T11:14:54.577Z,35.80
2022-08-04T11:17:45.206Z,35.40
2022-08-04T11:20:39.279Z,36.00
2022-08-04T11:23:33.869Z,34.40
2022-08-04T11:26:30.809Z,34.20
2022-08-04T11:29:24.404Z,34.00
2022-08-04T11:32:18.894Z,33.00
2022-08-04T11:35:11.315Z,33.90
2022-08-04T11:38:04.835Z,35.20
2022-08-04T11:41:02.792Z,34.40
2022-08-04T11:44:02.894Z,35.40
2022-08-04T11:46:55.457Z,34.20
2022-08-04T11:49:56.677Z,34.20
2022-08-04T11:52:46.791Z,35.20
2022-08-04T11:56:08.119Z,35.80
2022-08-04T11:58:50.230Z,34.90
2022-08-04T12:01:51.858Z,34.70
2022-08-04T12:04:47.398Z,35.30
2022-08-04T12:07:46.831Z,35.00
2022-08-04T12:10:45.357Z,34.80
2022-08-04T12:13:40.881Z,34.10
2022-08-04T12:16:36.763Z,35.00
2022-08-04T12:19:43.765Z,34.60
2022-08-04T12:22:45.095Z,35.20
2022-08-04T12:25:44.930Z,33.40
2022-08-04T12:29:07.354Z,32.80
2022-08-04T12:31:48.167Z,32.90
2022-08-04T12:34:43.174Z,32.90
2022-08-04T12:37:39.843Z,34.90
2022-08-04T12:40:31.224Z,33.90
2022-08-04T12:43:24.107Z,33.30
2022-08-04T12:46:13.038Z,35.00
2022-08-04T12:49:03.518Z,35.00
2022-08-04T12:52:06.708Z,35.60
2022-08-04T12:54:57.603Z,35.20
2022-08-04T12:57:45.658Z,34.00
2022-08-04T13:00:41.412Z,34.30
2022-08-04T13:03:37.902Z,33.40
2022-08-04T13:06:27.802Z,34.40
2022-08-04T13:09:19.501Z,36.00
2022-08-04T13:12:13.884Z,35.70
2022-08-04T13:15:10.720Z,35.80
2022-08-04T13:18:11.830Z,34.60
2022-08-04T13:21:21.035Z,34.20
2022-08-04T13:24:22.742Z,34.50
2022-08-04T13:27:23.670Z,33.10
2022-08-04T13:30:22.779Z,32.70
2022-08-04T13:33:12.465Z,32.20
2022-08-04T13:36:01.188Z,33.00
2022-08-04T13:38:51.689Z,33.10
2022-08-04T13:41:42.535Z,33.00
2022-08-04T13:44:34.273Z,31.70
2022-08-04T13:47:28.132Z,33.50
2022-08-04T13:50:23.650Z,34.40
2022-08-04T13:53:10.910Z,34.20
2022-08-04T13:56:00.726Z,33.80
2022-08-04T13:58:51.004Z,34.00
2022-08-04T14:01:42.121Z,34.10
2022-08-04T14:04:42.619Z,33.70
2022-08-04T14:07:31.885Z,32.80
2022-08-04T14:10:19.461Z,32.80
2022-08-04T14:13:07.717Z,33.30
2022-08-04T14:16:02.262Z,32.50
2022-08-04T14:19:01.934Z,33.80
2022-08-04T14:21:49.926Z,33.10
2022-08-04T14:24:36.916Z,33.90
2022-08-04T14:27:24.566Z,33.10
2022-08-04T14:30:24.091Z,33.60
2022-08-04T14:34:02.230Z,33.00
2022-08-04T14:36:23.356Z,31.90
2022-08-04T14:39:13.067Z,31.80
2022-08-04T14:42:00.362Z,32.50
2022-08-04T14:44:57.422Z,33.10
2022-08-04T14:47:51.803Z,33.10
2022-08-04T14:50:42.494Z,32.90
2022-08-04T14:53:31.216Z,33.30
2022-08-04T14:56:44.911Z,32.80
2022-08-04T14:59:26.300Z,33.30
2022-08-04T15:02:15.906Z,32.30
2022-08-04T15:05:55.595Z,32.40
2022-08-04T15:08:13.117Z,31.70
2022-08-04T15:11:03.130Z,32.00
2022-08-04T15:13:50.444Z,32.20
2022-08-04T15:16:37.648Z,32.40
2022-08-04T15:19:41.759Z,32.70
2022-08-04T15:22:43.542Z,33.00
2022-08-04T15:25:35.036Z,32.70
2022-08-04T15:28:28.871Z,33.30
2022-08-04T15:32:04.786Z,32.80
2022-08-04T15:34:27.439Z,33.20
2022-08-04T15:37:20.330Z,32.70
2022-08-04T15:40:13.573Z,31.60
2022-08-04T15:43:19.865Z,32.00
2022-08-04T15:46:42.744Z,33.00
2022-08-04T15:49:23.688Z,32.30
2022-08-04T15:52:12.787Z,33.10
2022-08-04T15:55:34.553Z,33.50
2022-08-04T15:58:23.409Z,31.90
2022-08-04T16:01:20.466Z,32.80
2022-08-04T16:04:23.827Z,33.60
2022-08-04T16:07:10.688Z,33.30
2022-08-04T16:10:40.676Z,33.10
2022-08-04T16:13:27.716Z,33.30
2022-08-04T16:16:49.155Z,34.20
2022-08-04T16:19:53.458Z,34.40
2022-08-04T16:22:42.289Z,35.10
2022-08-04T16:25:46.387Z,33.60
2022-08-04T16:28:43.013Z,32.90
2022-08-04T16:31:30.774Z,32.80
2022-08-04T16:34:48.205Z,32.10
2022-08-04T16:37:34.238Z,31.80
2022-08-04T16:40:35.376Z,32.10
2022-08-04T16:43:29.377Z,32.60
2022-08-04T16:46:41.898Z,32.70
2022-08-04T16:50:03.096Z,33.70
2022-08-04T16:52:52.278Z,34.80
2022-08-04T16:55:39.918Z,35.90
2022-08-04T16:58:30.328Z,35.20
2022-08-04T17:01:28.379Z,33.60
2022-08-04T17:04:49.237Z,33.80
2022-08-04T17:08:27.992Z,34.00
2022-08-04T17:11:07.600Z,34.20
2022-08-04T17:14:03.415Z,37.60
2022-08-04T17:16:53.793Z,36.40
2022-08-04T17:19:40.646Z,35.00
2022-08-04T17:22:29.502Z,35.00
2022-08-04T17:25:17.154Z,35.60
2022-08-04T17:28:08.971Z,36.00
2022-08-04T17:31:10.958Z,34.80
2022-08-04T17:34:00.227Z,36.70
2022-08-04T17:40:09.987Z,35.30
2022-08-04T17:44:04.526Z,37.20
2022-08-04T17:46:29.237Z,41.00
2022-08-04T17:49:23.187Z,43.10
2022-08-04T17:52:37.440Z,43.50
2022-08-04T17:55:41.198Z,44.00
2022-08-04T17:58:31.019Z,44.80
2022-08-04T18:01:24.486Z,45.70
2022-08-04T18:04:27.348Z,46.10
2022-08-04T18:08:41.416Z,46.30
2022-08-04T18:10:38.489Z,46.30
2022-08-04T18:13:42.884Z,47.00
2022-08-04T18:16:31.065Z,47.20
2022-08-04T18:19:19.029Z,47.50
2022-08-04T18:22:14.159Z,47.80
2022-08-04T18:25:04.202Z,47.50
2022-08-04T18:27:53.056Z,48.10
2022-08-04T18:30:54.977Z,48.00
2022-08-04T18:33:43.311Z,48.10
2022-08-04T18:36:57.311Z,48.70
2022-08-04T18:40:21.374Z,48.50
2022-08-04T18:42:54.982Z,48.70
2022-08-04T18:45:50.915Z,48.90
2022-08-04T18:48:38.745Z,49.30
2022-08-04T18:51:30.781Z,49.40
2022-08-04T18:54:18.667Z,49.40
2022-08-04T19:00:19.982Z,49.50
2022-08-04T19:03:08.589Z,50.20
2022-08-04T19:05:56.299Z,50.10
2022-08-04T19:08:45.790Z,51.50
2022-08-04T19:11:53.335Z,49.40
2022-08-04T19:14:41.413Z,49.80
2022-08-04T19:17:53.629Z,49.90
2022-08-04T19:20:40.044Z,50.30
2022-08-04T19:24:28.060Z,50.50
2022-08-04T19:26:38.535Z,50.70
2022-08-04T19:29:38.027Z,51.10
2022-08-04T19:32:27.785Z,51.40
2022-08-04T19:35:14.636Z,51.50
2022-08-04T19:38:04.011Z,51.80
2022-08-04T19:40:52.757Z,51.80
2022-08-04T19:43:43.872Z,52.20
2022-08-04T19:46:31.110Z,52.20
2022-08-04T19:50:03.317Z,52.80
2022-08-04T19:52:33.612Z,53.10
2022-08-04T19:55:37.639Z,52.90
2022-08-04T19:58:26.715Z,53.70
2022-08-04T20:01:33.423Z,53.90
2022-08-04T20:04:22.083Z,54.30
2022-08-04T20:07:14.208Z,54.90
2022-08-04T20:10:04.282Z,54.90
2022-08-04T20:15:59.431Z,55.20
2022-08-04T20:18:55.626Z,55.40
2022-08-04T20:21:56.174Z,55.30
2022-08-04T20:24:50.435Z,55.90
2022-08-04T20:27:51.622Z,55.90
2022-08-04T20:30:48.160Z,56.00
2022-08-04T20:33:36.113Z,55.90
2022-08-04T20:36:23.803Z,56.40
2022-08-04T20:39:11.113Z,56.70
2022-08-04T20:42:02.937Z,57.10
2022-08-04T20:44:50.200Z,57.50
2022-08-04T20:47:39.461Z,57.50
2022-08-04T20:50:29.865Z,57.50
2022-08-04T20:53:17.876Z,57.70
2022-08-04T20:56:05.188Z,57.90
2022-08-04T20:58:53.747Z,58.00
2022-08-04T21:01:40.896Z,58.20
2022-08-04T21:04:45.555Z,58.40
2022-08-04T21:07:36.456Z,58.50
2022-08-04T21:10:33.353Z,58.70
2022-08-04T21:13:20.202Z,58.80
2022-08-04T21:16:10.007Z,59.00
2022-08-04T21:19:17.109Z,59.20
2022-08-04T21:22:10.361Z,59.40
2022-08-04T21:24:57.467Z,59.60
2022-08-04T21:27:44.759Z,59.80
2022-08-04T21:30:52.548Z,59.90
2022-08-04T21:33:50.059Z,60.30
2022-08-04T21:36:38.578Z,60.30
2022-08-04T21:39:32.652Z,61.00
2022-08-04T21:42:27.955Z,61.20
2022-08-04T21:45:17.472Z,61.40
2022-08-04T21:48:07.810Z,62.40
2022-08-04T21:50:54.924Z,61.70
2022-08-04T21:53:42.515Z,61.90
2022-08-04T21:56:31.034Z,62.00
2022-08-04T21:59:23.751Z,62.20
2022-08-04T22:02:17.520Z,62.20
2022-08-04T22:05:07.343Z,62.30
2022-08-04T22:07:55.737Z,62.70
2022-08-04T22:10:42.739Z,63.10
2022-08-04T22:13:52.501Z,63.00
2022-08-04T22:16:40.922Z,63.30
2022-08-04T22:19:49.792Z,62.70
2022-08-04T22:22:35.954Z,62.40
2022-08-04T22:25:24.828Z,62.10
2022-08-04T22:28:18.910Z,61.90
2022-08-04T22:31:23.209Z,62.20
2022-08-04T22:34:11.934Z,62.90
2022-08-04T22:37:00.007Z,62.50
2022-08-04T22:39:56.355Z,62.30
2022-08-04T22:42:44.727Z,62.30
2022-08-04T22:45:44.831Z,63.20
2022-08-04T22:48:34.246Z,62.50
2022-08-04T22:51:22.501Z,63.40
2022-08-04T22:54:12.321Z,64.20
2022-08-04T22:56:59.334Z,64.60
2022-08-04T22:59:47.613Z,64.40
2022-08-04T23:02:36.138Z,64.60
2022-08-04T23:05:35.596Z,65.00
2022-08-04T23:08:23.245Z,65.10
2022-08-04T23:11:13.943Z,65.30
2022-08-04T23:14:02.047Z,65.50
2022-08-04T23:16:49.066Z,66.00
2022-08-04T23:19:40.439Z,66.10
2022-08-04T23:22:41.993Z,66.60
2022-08-04T23:25:32.935Z,66.90
2022-08-04T23:28:36.567Z,67.00
2022-08-04T23:31:24.171Z,67.30
2022-08-04T23:34:12.292Z,67.70
2022-08-04T23:36:59.697Z,68.00
2022-08-04T23:40:14.620Z,68.30
2022-08-04T23:42:55.977Z,68.50
2022-08-04T23:46:05.131Z,68.70
2022-08-04T23:48:51.103Z,68.80
2022-08-04T23:51:39.488Z,68.90
2022-08-04T23:54:26.656Z,69.10
2022-08-04T23:57:17.318Z,69.50
